RJSN

Niigata Airport

Niigata, Japan
TAF RJSN 210509Z 2106/2212 35008KT 9999 FEW030 BECMG 2108/2110 17006KT BECMG 2200/2203 36005KT BECMG 2206/2209 03008KT
Issued Valid From Valid To
Aug-21 @ 05:09 UTC
(13 hours ago)
Aug-21 @ 06:00 UTC
(12 hours ago)
Aug-22 @ 12:00 UTC
(in 18 hours)
Expired Click to View Aug-21 @ 06:00 to Aug-21 @ 08:00
TAF RJSN 210509Z 2106/2212 35008KT 9999 FEW030
Wind Visibility Clouds
350° at 8 knots 10,000+ meters
  • Few at 3,000' AGL
Becoming Aug-21 @ 08:00 to Aug-22 @ 00:00
BECMG 2108/2110 17006KT
Wind Visibility Clouds
170° at 6 knots 10,000+ meters
  • Few at 3,000' AGL
Becoming Aug-22 @ 00:00 to Aug-22 @ 06:00
BECMG 2200/2203 36005KT
Wind Visibility Clouds
360° at 5 knots 10,000+ meters
  • Few at 3,000' AGL
Becoming Aug-22 @ 06:00 to Aug-22 @ 12:00
BECMG 2206/2209 03008KT
Wind Visibility Clouds
30° at 8 knots 10,000+ meters
  • Few at 3,000' AGL
TAF RJSN 210509Z 2106/2212 35008KT 9999 FEW030 BECMG 2108/2110 17006KT BECMG 2200/2203 36005KT BECMG 2206/2209 03008KT
Issued Aug-21 @ 05:09 UTC
(13 hours ago)
Valid From Aug-21 @ 06:00 UTC
(12 hours ago)
Valid To Aug-22 @ 12:00 UTC
(in 18 hours)
Aug-21 @ 06:00 - Aug-21 @ 08:00
Wind Visibility
350° at 8 knots 10,000+ meters
Clouds
  • Few at 3,000' AGL
Becoming Aug-21 @ 08:00 - Aug-22 @ 00:00
Wind Visibility
170° at 6 knots 10,000+ meters
Clouds
  • Few at 3,000' AGL
Becoming Aug-22 @ 00:00 - Aug-22 @ 06:00
Wind Visibility
360° at 5 knots 10,000+ meters
Clouds
  • Few at 3,000' AGL
Becoming Aug-22 @ 06:00 - Aug-22 @ 12:00
Wind Visibility
30° at 8 knots 10,000+ meters
Clouds
  • Few at 3,000' AGL